Time;durP1;ratioP1;P1;durP2;ratioP2;P2;SDS_P1;SDS_P2;PMS_P1;PMS_P2;Temp;Humidity;BMP_temperature;BMP_pressure;BME280_temperature;BME280_humidity;BME280_pressure;Samples;Min_cycle;Max_cycle;Signal;HPM_P1;HPM_P2
2022/10/06 00:00:21;;;;;;;3.07;1.07;;;15.20;99.90;;;;;;4993521;28;20446;-73
2022/10/06 00:02:47;;;;;;;1.43;0.77;;;15.20;99.90;;;;;;4993297;28;20264;-74
2022/10/06 00:05:12;;;;;;;1.30;0.80;;;15.20;99.90;;;;;;4992187;28;20169;-72
2022/10/06 00:07:38;;;;;;;1.63;0.90;;;15.20;99.90;;;;;;4993432;28;20575;-73
2022/10/06 00:10:05;;;;;;;2.07;1.13;;;15.20;99.90;;;;;;4993464;28;20208;-72
2022/10/06 00:12:45;;;;;;;4.63;1.10;;;15.10;99.90;;;;;;4993765;28;20181;-74
2022/10/06 00:15:13;;;;;;;1.30;1.00;;;15.10;99.90;;;;;;4993906;28;20503;-74
2022/10/06 00:17:39;;;;;;;2.17;1.30;;;15.20;99.90;;;;;;4994340;28;20953;-74
2022/10/06 00:20:05;;;;;;;2.50;1.27;;;15.20;99.90;;;;;;4993630;28;20413;-73
2022/10/06 00:22:40;;;;;;;5.00;1.40;;;15.20;99.90;;;;;;4993001;28;20291;-73
2022/10/06 00:25:07;;;;;;;8.07;2.23;;;15.20;99.90;;;;;;4992935;28;20751;-73
2022/10/06 00:27:39;;;;;;;3.93;1.23;;;15.20;99.90;;;;;;4993629;28;20428;-73
2022/10/06 00:30:07;;;;;;;1.60;1.10;;;15.10;99.90;;;;;;4993093;28;20416;-73
2022/10/06 00:32:33;;;;;;;2.27;1.10;;;15.10;99.90;;;;;;4993068;28;20412;-72
2022/10/06 00:34:59;;;;;;;1.20;0.90;;;15.10;99.90;;;;;;4992787;28;20424;-72
2022/10/06 00:37:25;;;;;;;2.07;0.83;;;15.00;99.90;;;;;;4992862;28;20243;-72
2022/10/06 00:39:51;;;;;;;2.10;0.90;;;15.00;99.90;;;;;;4993368;28;20173;-74
2022/10/06 00:42:25;;;;;;;11.00;1.23;;;15.00;99.90;;;;;;4992846;28;20456;-72
2022/10/06 00:44:51;;;;;;;2.53;1.20;;;15.00;99.90;;;;;;4992499;28;20179;-72
2022/10/06 00:47:19;;;;;;;2.07;0.80;;;15.00;99.90;;;;;;4992802;28;20511;-71
2022/10/06 00:49:45;;;;;;;2.03;1.10;;;15.00;99.90;;;;;;4991350;28;20444;-72
2022/10/06 00:52:19;;;;;;;2.30;1.37;;;15.00;99.90;;;;;;4991522;28;20526;-72
2022/10/06 00:54:45;;;;;;;2.80;1.00;;;15.10;99.90;;;;;;4992574;28;20173;-72
2022/10/06 00:57:11;;;;;;;2.53;1.20;;;15.10;99.90;;;;;;4992667;28;20438;-71
2022/10/06 00:59:38;;;;;;;2.07;1.10;;;15.00;99.90;;;;;;4993391;28;20229;-74
2022/10/06 01:02:16;;;;;;;3.20;0.77;;;15.00;99.90;;;;;;4992766;28;20526;-73
2022/10/06 01:04:46;;;;;;;1.57;0.80;;;14.90;99.90;;;;;;4992308;28;20491;-74
2022/10/06 01:07:12;;;;;;;2.23;0.90;;;14.80;99.90;;;;;;4991434;28;20436;-73
2022/10/06 01:09:39;;;;;;;4.30;1.47;;;14.70;99.90;;;;;;4992479;28;21001;-73
2022/10/06 01:12:06;;;;;;;3.20;0.70;;;14.60;99.90;;;;;;4992667;28;20486;-72
2022/10/06 01:14:35;;;;;;;2.20;1.00;;;14.60;99.90;;;;;;4992525;28;20822;-73
2022/10/06 01:17:06;;;;;;;2.40;1.17;;;14.50;99.90;;;;;;4992463;28;20475;-73
2022/10/06 01:20:00;;;;;;;4.70;1.27;;;14.50;99.90;;;;;;4992633;28;20450;-72
2022/10/06 01:22:28;;;;;;;2.00;1.10;;;14.50;99.90;;;;;;4992460;28;20455;-72
2022/10/06 01:24:54;;;;;;;1.57;0.90;;;14.40;99.90;;;;;;4992268;28;20467;-73
2022/10/06 01:27:22;;;;;;;6.57;1.47;;;14.40;99.90;;;;;;4992447;28;20420;-72
2022/10/06 01:29:52;;;;;;;1.87;0.80;;;14.30;99.90;;;;;;4992484;28;20447;-73
2022/10/06 01:32:17;;;;;;;4.53;1.27;;;14.30;99.90;;;;;;4992457;28;20515;-74
2022/10/06 01:34:43;;;;;;;4.77;1.03;;;14.30;99.90;;;;;;4992449;28;20503;-71
2022/10/06 01:37:08;;;;;;;3.40;1.33;;;14.20;99.90;;;;;;4992222;28;20196;-72
2022/10/06 01:39:34;;;;;;;3.20;1.00;;;14.20;99.90;;;;;;4991132;28;20300;-72
2022/10/06 01:41:59;;;;;;;4.60;1.10;;;14.20;99.90;;;;;;4992850;28;20670;-74
2022/10/06 01:44:25;;;;;;;3.60;1.50;;;14.10;99.90;;;;;;4991807;28;20207;-73
2022/10/06 01:46:50;;;;;;;3.13;1.43;;;14.10;99.90;;;;;;4993197;28;20232;-75
2022/10/06 01:49:16;;;;;;;4.53;1.50;;;14.10;99.90;;;;;;4992285;28;20642;-73
2022/10/06 01:51:41;;;;;;;4.87;2.33;;;14.10;99.90;;;;;;4992558;28;20173;-72
2022/10/06 01:54:07;;;;;;;6.90;3.00;;;14.00;99.90;;;;;;4995634;28;20203;-73
2022/10/06 01:56:32;;;;;;;5.00;1.40;;;13.90;99.90;;;;;;4995408;28;20192;-73
2022/10/06 01:58:58;;;;;;;5.70;1.30;;;13.90;99.90;;;;;;4994580;28;20173;-73
2022/10/06 02:01:23;;;;;;;6.67;1.97;;;13.90;99.90;;;;;;4994768;28;20287;-74
2022/10/06 02:03:49;;;;;;;2.20;1.40;;;13.90;99.90;;;;;;4996930;28;20280;-74
2022/10/06 02:06:14;;;;;;;1.60;1.37;;;13.90;99.90;;;;;;4996307;28;20185;-72
2022/10/06 02:08:40;;;;;;;2.70;1.47;;;13.90;99.90;;;;;;4995553;28;20201;-72
2022/10/06 02:11:10;;;;;;;13.80;1.70;;;13.90;99.90;;;;;;4995601;28;20647;-72
2022/10/06 02:13:37;;;;;;;6.20;2.03;;;13.80;99.90;;;;;;4995472;28;20200;-72
2022/10/06 02:16:05;;;;;;;4.17;1.70;;;13.90;99.90;;;;;;4993602;28;20416;-74
2022/10/06 02:18:32;;;;;;;1.50;1.00;;;14.00;99.90;;;;;;4995391;28;20502;-72
2022/10/06 02:20:58;;;;;;;2.53;1.00;;;14.00;99.90;;;;;;4995412;28;20460;-72
2022/10/06 02:23:23;;;;;;;1.67;1.10;;;14.10;99.90;;;;;;4995441;28;20411;-71
2022/10/06 02:25:49;;;;;;;4.20;1.30;;;14.10;99.90;;;;;;4994954;28;20183;-71
2022/10/06 02:28:15;;;;;;;1.70;1.20;;;14.00;99.90;;;;;;4995230;28;20212;-73
2022/10/06 02:30:41;;;;;;;4.57;1.80;;;14.00;99.90;;;;;;4995218;28;20251;-73
2022/10/06 02:33:06;;;;;;;4.00;1.37;;;13.90;99.90;;;;;;4994628;28;20821;-72
2022/10/06 02:35:32;;;;;;;1.83;1.30;;;13.80;99.90;;;;;;4994781;28;20248;-72
2022/10/06 02:37:58;;;;;;;2.60;1.00;;;13.80;99.90;;;;;;4994954;28;20672;-71
2022/10/06 02:40:23;;;;;;;5.93;1.47;;;13.80;99.90;;;;;;4994973;28;20208;-72
2022/10/06 02:42:49;;;;;;;4.93;1.40;;;13.70;99.90;;;;;;4995128;28;20232;-74
2022/10/06 02:45:14;;;;;;;6.70;1.30;;;13.70;99.90;;;;;;4993819;28;20660;-74
2022/10/06 02:47:40;;;;;;;3.00;1.70;;;13.70;99.90;;;;;;4996108;28;20189;-74
2022/10/06 02:50:07;;;;;;;7.53;1.70;;;13.60;99.90;;;;;;4995154;28;20181;-74
2022/10/06 02:52:39;;;;;;;6.50;4.03;;;13.60;99.90;;;;;;4996466;28;20283;-73
2022/10/06 02:55:06;;;;;;;8.23;3.00;;;13.50;99.90;;;;;;4996160;28;20463;-73
2022/10/06 02:57:32;;;;;;;4.90;1.23;;;13.40;99.90;;;;;;4996040;28;20820;-74
2022/10/06 02:59:57;;;;;;;3.77;1.40;;;13.40;99.90;;;;;;4994630;28;20415;-73
2022/10/06 03:02:23;;;;;;;4.50;1.80;;;13.40;99.90;;;;;;4995593;28;20228;-73
2022/10/06 03:04:49;;;;;;;3.30;1.60;;;13.30;99.90;;;;;;4994285;28;20183;-73
2022/10/06 03:07:15;;;;;;;1.57;1.37;;;13.20;99.90;;;;;;4993331;28;20204;-71
2022/10/06 03:09:40;;;;;;;7.23;2.27;;;13.30;99.90;;;;;;4993233;28;20173;-71
2022/10/06 03:12:06;;;;;;;11.60;1.73;;;13.30;99.90;;;;;;4994405;28;20435;-72
2022/10/06 03:14:32;;;;;;;6.63;2.30;;;13.20;99.90;;;;;;4994245;28;20412;-73
2022/10/06 03:16:58;;;;;;;3.83;2.27;;;13.20;99.90;;;;;;4994330;28;20188;-72
2022/10/06 03:19:23;;;;;;;3.93;2.07;;;13.20;99.90;;;;;;4994404;28;20546;-73
2022/10/06 03:21:49;;;;;;;10.13;1.90;;;13.10;99.90;;;;;;4994142;28;20812;-72
2022/10/06 03:24:15;;;;;;;14.10;7.57;;;13.10;99.90;;;;;;4994339;28;20404;-74
2022/10/06 03:26:43;;;;;;;10.60;4.57;;;13.00;99.90;;;;;;4994007;28;20185;-73
2022/10/06 03:29:09;;;;;;;2.90;1.97;;;13.00;99.90;;;;;;4994232;28;20177;-72
2022/10/06 03:31:35;;;;;;;2.70;1.33;;;13.00;99.90;;;;;;4994128;28;20980;-73
2022/10/06 03:34:01;;;;;;;7.83;1.70;;;12.90;99.90;;;;;;4994082;28;20412;-73
2022/10/06 03:36:31;;;;;;;3.37;1.27;;;12.90;99.90;;;;;;4993626;28;20193;-74
2022/10/06 03:38:56;;;;;;;6.30;2.53;;;12.90;99.90;;;;;;4994300;28;20196;-72
2022/10/06 03:41:27;;;;;;;3.07;1.60;;;12.90;99.90;;;;;;4994407;28;20480;-74
2022/10/06 03:43:55;;;;;;;4.10;2.00;;;12.90;99.90;;;;;;4995027;28;20169;-73
2022/10/06 03:46:23;;;;;;;9.50;1.90;;;12.80;99.90;;;;;;4994923;28;20436;-74
2022/10/06 03:48:49;;;;;;;3.83;2.20;;;12.80;99.90;;;;;;4994040;28;20875;-72
2022/10/06 03:51:18;;;;;;;5.33;2.10;;;12.80;99.90;;;;;;4993765;28;20412;-72
2022/10/06 03:53:46;;;;;;;9.60;2.67;;;12.80;99.90;;;;;;4995051;28;20789;-74
2022/10/06 03:56:16;;;;;;;13.80;3.53;;;12.80;99.90;;;;;;4994629;28;20492;-74
2022/10/06 03:58:44;;;;;;;4.00;2.10;;;12.80;99.90;;;;;;4995258;28;20411;-74
2022/10/06 04:01:14;;;;;;;19.50;2.30;;;12.80;99.90;;;;;;4994048;28;20456;-74
2022/10/06 04:03:40;;;;;;;4.10;1.43;;;12.70;99.90;;;;;;4993617;28;20419;-74
2022/10/06 04:06:10;;;;;;;5.10;1.43;;;12.70;99.90;;;;;;4993247;28;20779;-72
2022/10/06 04:08:36;;;;;;;7.10;1.70;;;12.70;99.90;;;;;;4992051;28;20914;-73
2022/10/06 04:11:17;;;;;;;6.50;1.60;;;12.60;99.90;;;;;;4993308;28;20419;-72
2022/10/06 04:13:44;;;;;;;9.03;2.03;;;12.60;99.90;;;;;;4993290;28;20415;-72
2022/10/06 04:16:21;;;;;;;6.63;1.33;;;12.60;99.90;;;;;;4992218;28;20439;-73
2022/10/06 04:18:52;;;;;;;4.90;1.67;;;12.60;99.90;;;;;;4993294;28;20554;-73
2022/10/06 04:21:18;;;;;;;5.03;1.53;;;12.50;99.90;;;;;;4991777;28;20810;-72
2022/10/06 04:23:43;;;;;;;4.03;1.50;;;12.50;99.90;;;;;;4993223;28;20404;-72
2022/10/06 04:26:11;;;;;;;7.37;2.03;;;12.40;99.90;;;;;;4992638;28;20421;-72
2022/10/06 04:28:38;;;;;;;11.60;4.07;;;12.40;99.90;;;;;;4993071;28;20165;-72
2022/10/06 04:31:10;;;;;;;13.10;8.03;;;12.30;99.90;;;;;;4993117;28;20412;-73
2022/10/06 04:33:36;;;;;;;8.33;2.13;;;12.30;99.90;;;;;;4993041;28;20418;-73
2022/10/06 04:36:04;;;;;;;3.23;1.07;;;12.20;99.90;;;;;;4992759;28;20499;-72
2022/10/06 04:38:35;;;;;;;6.10;1.83;;;12.20;99.90;;;;;;4992919;28;20173;-72
2022/10/06 04:41:16;;;;;;;6.33;2.10;;;12.20;99.90;;;;;;4991622;28;20466;-72
2022/10/06 04:43:43;;;;;;;4.70;1.17;;;12.10;99.90;;;;;;4992922;28;20408;-73
2022/10/06 04:46:09;;;;;;;8.70;1.97;;;12.10;99.90;;;;;;4993693;28;20426;-73
2022/10/06 04:48:34;;;;;;;3.63;1.10;;;12.10;99.90;;;;;;4993311;28;20408;-72
2022/10/06 04:51:02;;;;;;;7.03;1.37;;;12.10;99.90;;;;;;4992729;28;20188;-73
2022/10/06 04:53:29;;;;;;;12.50;1.93;;;12.10;99.90;;;;;;4992722;28;20176;-74
2022/10/06 04:56:06;;;;;;;3.33;1.77;;;12.10;99.90;;;;;;4991098;28;20494;-73
2022/10/06 04:58:36;;;;;;;5.17;1.13;;;12.10;99.90;;;;;;4992772;28;20404;-73
2022/10/06 05:01:03;;;;;;;10.93;1.80;;;12.10;99.90;;;;;;4994252;28;20471;-74
2022/10/06 05:03:30;;;;;;;5.53;2.00;;;12.10;99.90;;;;;;4992771;28;20420;-73
2022/10/06 05:06:04;;;;;;;11.37;6.57;;;12.10;99.90;;;;;;4992266;28;20408;-73
2022/10/06 05:08:29;;;;;;;16.20;6.20;;;12.10;99.90;;;;;;4992624;28;20451;-72
2022/10/06 05:11:02;;;;;;;5.23;2.20;;;12.00;99.90;;;;;;4992714;28;20831;-74
2022/10/06 05:13:28;;;;;;;6.53;1.93;;;12.00;99.90;;;;;;4994069;28;20180;-74
2022/10/06 05:15:59;;;;;;;13.17;4.80;;;12.00;99.90;;;;;;4992907;28;20408;-74
2022/10/06 05:18:25;;;;;;;7.60;2.07;;;12.00;99.90;;;;;;4994138;28;20491;-74
2022/10/06 05:20:59;;;;;;;2.47;1.80;;;11.90;99.90;;;;;;4993444;28;21211;-72
2022/10/06 05:23:26;;;;;;;3.67;2.03;;;11.90;99.90;;;;;;4992580;28;20399;-72
2022/10/06 05:25:53;;;;;;;6.03;2.00;;;11.90;99.90;;;;;;4992703;28;20411;-71
2022/10/06 05:28:19;;;;;;;5.20;2.00;;;11.80;99.90;;;;;;4997580;28;20420;-73
2022/10/06 05:31:03;;;;;;;7.10;2.30;;;11.90;99.90;;;;;;4998231;28;20434;-72
2022/10/06 05:33:31;;;;;;;6.53;1.80;;;11.90;99.90;;;;;;4995187;28;20423;-72
2022/10/06 05:36:02;;;;;;;13.83;2.63;;;11.80;99.90;;;;;;4997505;28;20889;-74
2022/10/06 05:38:28;;;;;;;4.40;1.87;;;11.70;99.90;;;;;;4998455;28;20408;-73
2022/10/06 05:41:04;;;;;;;3.10;1.40;;;11.80;99.90;;;;;;4996129;28;20419;-73
2022/10/06 05:43:30;;;;;;;2.73;1.77;;;11.70;99.90;;;;;;4996166;28;20411;-72
2022/10/06 05:45:58;;;;;;;5.93;2.40;;;11.70;99.90;;;;;;4995758;28;20562;-73
2022/10/06 05:48:24;;;;;;;3.90;1.93;;;11.60;99.90;;;;;;4996140;28;20396;-72
2022/10/06 05:51:07;;;;;;;4.60;1.93;;;11.60;99.90;;;;;;4995913;28;20463;-71
2022/10/06 05:53:34;;;;;;;3.10;1.83;;;11.70;99.90;;;;;;4996019;28;20408;-72
2022/10/06 05:56:13;;;;;;;7.23;1.80;;;11.70;99.90;;;;;;4998266;28;20758;-74
2022/10/06 05:58:41;;;;;;;11.60;2.97;;;11.70;99.90;;;;;;4997048;28;20507;-73
2022/10/06 06:01:15;;;;;;;1.90;1.40;;;11.60;99.90;;;;;;4997447;28;20463;-73
2022/10/06 06:03:42;;;;;;;5.23;1.37;;;11.60;99.90;;;;;;4998500;28;20414;-72
2022/10/06 06:06:37;;;;;;;9.93;2.03;;;11.70;99.90;;;;;;4997830;28;20502;-74
2022/10/06 06:09:17;;;;;;;12.47;2.13;;;11.70;99.90;;;;;;4997260;28;20964;-73
2022/10/06 06:11:45;;;;;;;5.03;1.97;;;11.70;99.90;;;;;;4996627;28;20766;-73
2022/10/06 06:14:16;;;;;;;10.67;2.00;;;11.80;99.90;;;;;;4998005;28;20419;-73
2022/10/06 06:16:42;;;;;;;7.53;2.20;;;11.80;99.90;;;;;;4997979;28;20486;-74
2022/10/06 06:19:09;;;;;;;11.17;1.90;;;11.80;99.90;;;;;;4996449;28;20423;-74
2022/10/06 06:21:35;;;;;;;5.03;1.87;;;11.80;99.90;;;;;;4996157;28;20463;-73
2022/10/06 06:24:02;;;;;;;8.13;2.10;;;11.80;99.90;;;;;;4997213;28;20412;-73
2022/10/06 06:26:30;;;;;;;4.23;1.30;;;11.90;99.90;;;;;;4997100;28;20439;-73
2022/10/06 06:29:05;;;;;;;8.07;1.60;;;12.00;99.90;;;;;;4997219;28;20408;-74
2022/10/06 06:31:32;;;;;;;2.57;1.60;;;12.00;99.90;;;;;;4997266;28;20471;-74
2022/10/06 06:34:01;;;;;;;4.57;1.40;;;12.00;99.90;;;;;;4996376;28;20940;-73
2022/10/06 06:36:28;;;;;;;5.07;1.40;;;12.10;99.90;;;;;;4994637;28;20447;-72
2022/10/06 06:38:56;;;;;;;2.60;1.10;;;12.00;99.90;;;;;;4994406;28;20958;-74
2022/10/06 06:41:25;;;;;;;5.10;1.40;;;12.00;99.90;;;;;;4995118;28;20455;-73
2022/10/06 06:43:54;;;;;;;6.20;1.30;;;12.10;99.90;;;;;;4993758;28;20412;-72
2022/10/06 06:46:23;;;;;;;4.50;1.60;;;12.10;99.90;;;;;;4994642;28;20420;-72
2022/10/06 06:48:50;;;;;;;1.93;1.30;;;12.10;99.90;;;;;;4994781;28;20416;-72
2022/10/06 06:51:18;;;;;;;7.63;2.30;;;12.10;99.90;;;;;;4994941;28;20415;-72
2022/10/06 06:53:43;;;;;;;5.13;1.30;;;12.20;99.90;;;;;;4993484;28;20420;-72
2022/10/06 06:56:09;;;;;;;10.20;1.87;;;12.20;99.90;;;;;;4994427;28;20474;-72
2022/10/06 06:58:35;;;;;;;6.40;1.67;;;12.30;99.90;;;;;;4994630;28;20257;-72
2022/10/06 07:01:12;;;;;;;3.13;1.20;;;12.30;99.90;;;;;;4995578;28;20176;-74
2022/10/06 07:03:44;;;;;;;13.93;1.60;;;12.40;99.90;;;;;;4994672;28;20404;-72
2022/10/06 07:06:11;;;;;;;6.77;2.20;;;12.40;99.90;;;;;;4994352;28;20405;-73
2022/10/06 07:08:41;;;;;;;4.00;1.60;;;12.50;99.90;;;;;;4995110;28;20404;-74
2022/10/06 07:11:17;;;;;;;11.70;2.40;;;12.50;99.90;;;;;;4996066;28;20404;-74
2022/10/06 07:13:43;;;;;;;2.90;1.60;;;12.60;99.90;;;;;;4994990;28;20813;-73
2022/10/06 07:27:08;;;;;;;7.90;1.47;;;12.90;99.90;;;;;;4996806;28;20434;-74
2022/10/06 07:29:34;;;;;;;4.17;2.13;;;13.00;99.90;;;;;;4995590;28;20997;-74
2022/10/06 07:31:59;;;;;;;2.43;1.43;;;13.10;99.90;;;;;;4995335;28;20408;-73
2022/10/06 07:34:26;;;;;;;9.93;2.13;;;13.20;99.90;;;;;;4995788;28;20710;-74
2022/10/06 07:36:53;;;;;;;10.17;1.73;;;13.20;99.90;;;;;;4994508;28;20224;-73
2022/10/06 07:39:19;;;;;;;6.43;2.00;;;13.30;99.90;;;;;;4995586;28;20411;-74
2022/10/06 07:41:45;;;;;;;11.33;2.30;;;13.40;99.90;;;;;;4995465;28;20455;-74
2022/10/06 07:44:10;;;;;;;9.63;1.50;;;13.60;99.90;;;;;;4994168;28;20412;-72
2022/10/06 07:46:36;;;;;;;5.17;2.97;;;13.70;99.90;;;;;;4993597;28;20674;-72
2022/10/06 07:49:01;;;;;;;14.63;2.00;;;13.80;99.90;;;;;;4993605;28;20665;-72
2022/10/06 07:51:27;;;;;;;7.90;1.93;;;13.90;99.90;;;;;;4993831;28;20168;-72
2022/10/06 07:53:53;;;;;;;7.83;2.50;;;14.00;99.90;;;;;;4993713;28;20161;-72
2022/10/06 07:56:21;;;;;;;15.50;2.07;;;14.10;99.90;;;;;;4993167;28;20185;-72
2022/10/06 07:58:48;;;;;;;3.93;1.33;;;14.20;99.90;;;;;;4993718;28;20248;-72
2022/10/06 08:01:16;;;;;;;7.83;1.33;;;14.40;99.90;;;;;;4993478;28;20452;-72
2022/10/06 08:03:44;;;;;;;5.00;1.40;;;14.50;99.90;;;;;;4993559;28;20906;-73
2022/10/06 08:06:15;;;;;;;4.80;1.53;;;14.80;99.90;;;;;;4991885;28;20408;-73
2022/10/06 08:08:42;;;;;;;5.70;1.80;;;15.10;99.90;;;;;;4993489;28;20404;-73
2022/10/06 08:11:09;;;;;;;6.43;1.90;;;15.60;99.90;;;;;;4992245;28;21091;-72
2022/10/06 08:13:36;;;;;;;11.00;2.13;;;16.40;99.90;;;;;;4993360;28;20490;-73
2022/10/06 08:16:14;;;;;;;7.47;2.40;;;17.70;99.90;;;;;;4993038;28;20408;-73
2022/10/06 08:18:41;;;;;;;13.33;2.30;;;19.10;99.90;;;;;;4992036;28;20442;-70
2022/10/06 08:21:15;;;;;;;2.93;1.50;;;20.80;99.90;;;;;;4993180;28;20444;-71
2022/10/06 08:23:42;;;;;;;8.83;1.97;;;22.20;99.90;;;;;;4993235;28;20412;-71
2022/10/06 08:26:09;;;;;;;4.60;2.13;;;23.30;98.70;;;;;;4992802;28;20944;-71
2022/10/06 08:28:35;;;;;;;4.30;1.70;;;24.60;93.80;;;;;;4993138;28;20404;-71
2022/10/06 08:31:05;;;;;;;4.03;1.83;;;26.00;80.70;;;;;;4993002;28;20450;-71
2022/10/06 08:33:31;;;;;;;3.90;2.03;;;26.70;68.50;;;;;;4992957;28;20172;-70
2022/10/06 08:36:03;;;;;;;2.90;2.53;;;27.40;61.60;;;;;;4992697;28;20404;-70
2022/10/06 08:38:28;;;;;;;4.20;1.80;;;27.40;58.20;;;;;;4992892;28;20172;-71
2022/10/06 08:40:54;;;;;;;5.53;2.17;;;27.50;58.00;;;;;;4991283;28;20455;-71
2022/10/06 08:43:23;;;;;;;7.87;2.17;;;27.90;58.80;;;;;;4992840;28;20199;-71
2022/10/06 08:45:57;;;;;;;4.97;1.83;;;28.60;56.30;;;;;;4992528;28;20168;-71
2022/10/06 08:48:25;;;;;;;4.80;1.80;;;29.60;54.80;;;;;;4992439;28;20466;-71
2022/10/06 08:51:14;;;;;;;5.10;1.70;;;30.30;50.80;;;;;;4992864;28;20946;-70
2022/10/06 08:53:49;;;;;;;5.50;2.20;;;29.90;49.40;;;;;;4992724;28;20416;-71
2022/10/06 08:56:30;;;;;;;4.50;1.60;;;29.20;51.20;;;;;;4992393;28;20458;-71
2022/10/06 08:59:03;;;;;;;9.40;2.73;;;29.60;51.00;;;;;;4992737;28;20404;-71
2022/10/06 09:01:50;;;;;;;5.67;1.67;;;29.40;50.20;;;;;;4992080;28;20452;-71
2022/10/06 09:04:30;;;;;;;6.63;2.20;;;29.80;49.30;;;;;;4992437;28;20735;-71
2022/10/06 09:07:02;;;;;;;3.10;2.70;;;30.40;48.20;;;;;;4992493;28;20415;-71
2022/10/06 09:10:04;;;;;;;9.50;1.80;;;30.50;48.50;;;;;;4991350;28;20774;-71
2022/10/06 09:12:38;;;;;;;4.13;1.70;;;31.40;48.50;;;;;;4992769;28;20400;-73
2022/10/06 09:15:33;;;;;;;2.80;1.50;;;31.90;44.20;;;;;;4992461;28;20439;-72
2022/10/06 09:18:21;;;;;;;4.83;1.80;;;32.00;45.20;;;;;;4992489;28;20442;-72
2022/10/06 09:20:57;;;;;;;5.27;2.40;;;31.80;43.90;;;;;;4992926;28;20400;-72
2022/10/06 09:26:16;;;;;;;2.77;1.43;;;31.40;43.70;;;;;;4992458;28;20528;-71
2022/10/06 09:28:45;;;;;;;3.37;1.77;;;31.20;44.10;;;;;;4992421;28;20407;-73
2022/10/06 09:31:22;;;;;;;4.00;1.60;;;31.30;43.60;;;;;;4991164;28;20490;-72
2022/10/06 09:33:52;;;;;;;5.10;1.93;;;32.00;44.90;;;;;;4992403;28;20407;-72
2022/10/06 09:36:18;;;;;;;4.57;1.70;;;32.50;41.20;;;;;;4992017;28;20503;-71
2022/10/06 09:38:55;;;;;;;3.17;2.03;;;31.80;41.80;;;;;;4992330;28;20379;-71
2022/10/06 09:41:33;;;;;;;5.53;2.00;;;31.20;41.40;;;;;;4992326;28;20473;-71
2022/10/06 09:44:02;;;;;;;3.70;1.57;;;31.60;42.60;;;;;;4992309;28;20374;-71
2022/10/06 09:46:30;;;;;;;8.13;2.00;;;32.60;41.90;;;;;;4992038;28;20510;-72
2022/10/06 09:49:13;;;;;;;4.40;2.30;;;33.30;41.40;;;;;;4992306;28;20932;-72
2022/10/06 09:51:38;;;;;;;6.40;1.80;;;33.50;39.20;;;;;;4991307;28;20956;-71
2022/10/06 09:54:13;;;;;;;3.00;1.67;;;34.00;38.20;;;;;;4992213;28;20466;-72
2022/10/06 09:56:45;;;;;;;4.93;1.57;;;34.20;37.80;;;;;;4990895;28;20192;-72
2022/10/06 09:59:25;;;;;;;2.17;1.27;;;33.90;37.40;;;;;;4992243;28;20431;-71
2022/10/06 10:01:56;;;;;;;2.97;1.37;;;33.40;38.40;;;;;;4992256;28;20501;-71
2022/10/06 10:04:40;;;;;;;4.40;1.67;;;33.30;37.50;;;;;;4992076;28;20423;-72
2022/10/06 10:07:24;;;;;;;6.73;1.77;;;33.50;37.60;;;;;;4992134;28;20423;-72
2022/10/06 10:09:52;;;;;;;3.87;1.40;;;33.50;38.20;;;;;;4992271;28;20779;-71
2022/10/06 10:12:26;;;;;;;3.57;1.47;;;34.20;36.40;;;;;;4992187;28;20549;-72
2022/10/06 10:15:21;;;;;;;2.90;1.47;;;34.60;36.40;;;;;;4994419;28;20418;-71
2022/10/06 10:17:55;;;;;;;3.40;1.53;;;34.30;35.80;;;;;;4994289;28;20968;-71
2022/10/06 10:20:27;;;;;;;2.83;1.37;;;34.30;35.70;;;;;;4995575;28;20418;-71
2022/10/06 10:22:57;;;;;;;9.23;1.87;;;33.50;35.40;;;;;;4995432;28;20470;-70
2022/10/06 10:25:39;;;;;;;2.60;1.70;;;33.00;36.10;;;;;;4995168;28;20932;-72
2022/10/06 10:28:14;;;;;;;2.90;1.30;;;32.40;37.60;;;;;;4995479;28;20503;-72
2022/10/06 10:30:52;;;;;;;4.60;1.70;;;33.20;37.20;;;;;;4995402;28;20760;-71
2022/10/06 10:33:25;;;;;;;3.73;1.90;;;34.10;37.40;;;;;;4995408;28;20423;-72
2022/10/06 10:35:54;;;;;;;3.20;1.67;;;35.40;36.90;;;;;;4993654;28;20391;-72
2022/10/06 10:38:22;;;;;;;2.27;1.73;;;36.60;35.00;;;;;;4995199;28;20415;-71
2022/10/06 10:40:50;;;;;;;3.50;2.97;;;37.30;33.80;;;;;;4995116;28;20542;-72
2022/10/06 10:43:34;;;;;;;2.97;1.83;;;38.00;31.70;;;;;;4994937;28;20379;-73
2022/10/06 10:46:21;;;;;;;4.10;1.63;;;37.90;30.90;;;;;;4994625;28;20408;-71
2022/10/06 10:49:11;;;;;;;3.23;1.80;;;38.20;31.40;;;;;;4994983;28;20375;-73
2022/10/06 10:52:02;;;;;;;2.07;1.50;;;37.70;32.50;;;;;;4995247;28;20967;-73
2022/10/06 10:54:44;;;;;;;3.30;1.80;;;37.90;31.70;;;;;;4995275;28;20778;-73
2022/10/06 10:57:16;;;;;;;3.00;1.60;;;37.90;30.60;;;;;;4995725;28;20424;-73
2022/10/06 11:00:06;;;;;;;2.47;2.27;;;38.20;30.30;;;;;;4995458;28;20488;-73
2022/10/06 11:02:34;;;;;;;3.50;1.60;;;38.40;31.40;;;;;;4995918;28;20441;-73
2022/10/06 11:05:16;;;;;;;4.13;1.80;;;38.30;29.20;;;;;;4995850;28;20435;-73
2022/10/06 11:07:45;;;;;;;4.20;3.20;;;38.80;30.70;;;;;;4994910;28;20490;-72
2022/10/06 11:10:17;;;;;;;7.43;2.27;;;38.40;29.10;;;;;;4996046;28;20419;-74
2022/10/06 11:13:28;;;;;;;2.43;1.63;;;38.40;30.30;;;;;;4995831;28;20748;-72
2022/10/06 11:16:23;;;;;;;7.70;2.03;;;38.40;29.20;;;;;;4994089;28;20416;-72
2022/10/06 11:18:53;;;;;;;2.03;1.50;;;38.20;29.60;;;;;;4996046;28;20431;-72
2022/10/06 11:21:25;;;;;;;6.40;1.57;;;37.90;29.40;;;;;;4995997;28;20958;-73
2022/10/06 11:24:14;;;;;;;4.53;1.67;;;38.00;29.80;;;;;;4995274;28;20383;-73
2022/10/06 11:27:06;;;;;;;4.87;1.90;;;37.30;29.70;;;;;;4994676;28;20519;-72
2022/10/06 11:29:38;;;;;;;4.50;1.87;;;36.00;29.70;;;;;;4994318;28;20465;-72
2022/10/06 11:32:25;;;;;;;3.13;1.50;;;35.60;31.50;;;;;;4993402;28;20416;-70
2022/10/06 11:34:52;;;;;;;3.33;1.50;;;35.70;30.30;;;;;;4993864;28;20790;-72
2022/10/06 11:37:23;;;;;;;4.90;1.70;;;35.30;30.80;;;;;;4994091;28;20625;-71
2022/10/06 11:40:22;;;;;;;2.00;1.50;;;36.50;31.10;;;;;;4994022;28;20447;-71
2022/10/06 11:43:03;;;;;;;3.10;1.93;;;37.20;30.20;;;;;;4993886;28;20463;-71
2022/10/06 11:45:38;;;;;;;4.57;1.50;;;37.30;29.30;;;;;;4993578;28;20423;-70
2022/10/06 11:48:25;;;;;;;3.60;1.67;;;37.50;29.60;;;;;;4993705;28;20436;-71
2022/10/06 11:50:54;;;;;;;6.60;1.33;;;37.40;29.10;;;;;;4993680;28;20765;-71
2022/10/06 11:53:33;;;;;;;3.63;1.30;;;37.40;29.10;;;;;;4993788;28;20383;-71
2022/10/06 11:56:16;;;;;;;4.43;1.93;;;37.40;28.70;;;;;;4993561;28;20600;-72
2022/10/06 11:58:51;;;;;;;7.33;1.60;;;36.70;29.60;;;;;;4993873;28;20521;-72
2022/10/06 12:01:32;;;;;;;5.30;1.80;;;37.50;29.80;;;;;;4993877;28;20451;-72
2022/10/06 12:04:18;;;;;;;3.00;1.40;;;38.60;28.00;;;;;;4993079;28;20443;-72
2022/10/06 12:06:46;;;;;;;2.60;2.03;;;39.30;28.50;;;;;;4993374;28;20424;-72
2022/10/06 12:09:24;;;;;;;1.90;1.60;;;40.40;28.10;;;;;;4993580;28;20741;-71
2022/10/06 12:11:54;;;;;;;5.03;1.77;;;39.60;26.90;;;;;;4993518;28;20408;-73
2022/10/06 12:14:33;;;;;;;2.40;1.67;;;37.80;28.10;;;;;;4993298;28;20486;-72
2022/10/06 12:17:17;;;;;;;2.67;1.47;;;37.40;28.80;;;;;;4993457;28;20467;-72
2022/10/06 12:20:17;;;;;;;3.73;1.30;;;36.90;29.50;;;;;;4993616;28;20495;-72
2022/10/06 12:22:51;;;;;;;2.63;1.60;;;37.50;28.40;;;;;;4993283;28;20465;-72
2022/10/06 12:25:33;;;;;;;3.03;1.50;;;37.90;28.80;;;;;;4993227;28;20458;-72
2022/10/06 12:28:09;;;;;;;2.27;1.37;;;38.50;27.30;;;;;;4993134;28;20386;-71
2022/10/06 12:31:11;;;;;;;3.93;1.20;;;39.40;26.90;;;;;;4993270;28;20374;-70
2022/10/06 12:33:39;;;;;;;2.67;1.40;;;39.60;26.40;;;;;;4993211;28;20764;-72
2022/10/06 12:36:14;;;;;;;4.07;1.73;;;39.30;27.20;;;;;;4992042;28;20515;-71
2022/10/06 12:38:42;;;;;;;5.03;1.70;;;39.90;26.40;;;;;;4993049;28;20377;-72
2022/10/06 12:41:12;;;;;;;3.10;1.40;;;40.10;26.90;;;;;;4992133;28;20741;-72
2022/10/06 12:43:52;;;;;;;3.53;1.47;;;39.90;26.10;;;;;;4991432;28;20806;-72
2022/10/06 12:46:45;;;;;;;2.93;1.60;;;39.90;25.60;;;;;;4992151;28;20802;-71
2022/10/06 12:49:44;;;;;;;3.70;1.30;;;39.70;25.40;;;;;;4991720;28;20436;-72
2022/10/06 12:52:19;;;;;;;2.63;1.80;;;40.70;26.40;;;;;;4992418;28;20378;-71
2022/10/06 12:55:06;;;;;;;3.07;1.70;;;40.30;25.00;;;;;;4991882;28;20953;-72
2022/10/06 12:57:44;;;;;;;3.40;3.10;;;39.70;25.10;;;;;;4992254;28;20428;-71
2022/10/06 13:00:29;;;;;;;4.90;1.80;;;39.90;26.10;;;;;;4991856;28;20416;-71
2022/10/06 13:02:56;;;;;;;2.43;1.57;;;40.00;25.40;;;;;;4991662;28;20451;-70
2022/10/06 13:05:22;;;;;;;3.60;1.97;;;38.70;25.60;;;;;;4990438;28;20420;-72
2022/10/06 13:07:55;;;;;;;2.23;1.20;;;37.70;26.20;;;;;;4992398;28;20436;-72
2022/10/06 13:10:20;;;;;;;2.70;1.20;;;37.40;27.30;;;;;;4992534;28;20418;-71
2022/10/06 13:12:49;;;;;;;3.10;1.90;;;38.20;27.40;;;;;;4992375;28;20390;-72
2022/10/06 13:15:29;;;;;;;2.80;1.20;;;38.10;26.30;;;;;;4991698;28;20667;-72
2022/10/06 13:18:11;;;;;;;2.30;1.57;;;38.10;27.30;;;;;;4991993;28;20972;-72
2022/10/06 13:20:40;;;;;;;2.80;1.70;;;38.30;27.20;;;;;;4992078;28;20834;-72